createdAt,value
2023-10-29T00:00:10.663Z,45.88
2023-10-29T00:00:50.497Z,47.63
2023-10-29T00:01:30.489Z,46.22
2023-10-29T00:02:10.718Z,45.88
2023-10-29T00:02:50.606Z,45.31
2023-10-29T00:03:30.629Z,44.34
2023-10-29T00:04:10.555Z,44.11
2023-10-29T00:04:50.606Z,43.57
2023-10-29T00:05:30.570Z,44.37
2023-10-29T00:06:12.898Z,44.17
2023-10-29T00:06:52.684Z,44.20
2023-10-29T00:07:32.859Z,45.47
2023-10-29T00:08:12.839Z,45.98
2023-10-29T00:08:52.702Z,45.78
2023-10-29T00:09:32.798Z,46.18
2023-10-29T00:10:12.675Z,45.75
2023-10-29T00:10:52.407Z,45.05
2023-10-29T00:11:32.511Z,44.68
2023-10-29T00:12:12.222Z,45.41
2023-10-29T00:12:52.341Z,46.03
2023-10-29T00:13:32.376Z,46.89
2023-10-29T00:14:12.119Z,47.06
2023-10-29T00:14:51.880Z,46.20
2023-10-29T00:15:32.551Z,44.79
2023-10-29T00:16:13.161Z,44.81
2023-10-29T00:16:53.232Z,45.32
2023-10-29T00:17:33.005Z,44.97
2023-10-29T00:18:15.023Z,43.71
2023-10-29T00:18:54.877Z,44.18
2023-10-29T00:19:34.607Z,44.58
2023-10-29T00:20:15.301Z,45.84
2023-10-29T00:20:55.349Z,45.89
2023-10-29T00:21:36.679Z,46.03
2023-10-29T00:22:16.406Z,45.41
2023-10-29T00:22:56.152Z,45.51
2023-10-29T00:23:36.225Z,45.27
2023-10-29T00:24:15.987Z,45.13
2023-10-29T00:24:55.920Z,44.97
2023-10-29T00:25:35.655Z,46.45
2023-10-29T00:26:15.558Z,45.62
2023-10-29T00:27:00.742Z,45.34
2023-10-29T00:27:40.602Z,44.55
2023-10-29T00:28:20.301Z,44.03
2023-10-29T00:29:00.376Z,44.35
2023-10-29T00:29:40.550Z,45.49
2023-10-29T00:30:20.286Z,45.76
2023-10-29T00:31:00.091Z,44.98
2023-10-29T00:31:40.046Z,44.12
2023-10-29T00:32:20.976Z,43.41
2023-10-29T00:33:00.782Z,43.66
2023-10-29T00:33:41.125Z,43.54
2023-10-29T00:34:21.253Z,44.05
2023-10-29T00:35:01.145Z,44.99
2023-10-29T00:35:41.784Z,44.88
2023-10-29T00:36:21.597Z,44.79
2023-10-29T00:37:01.511Z,44.39
2023-10-29T00:37:41.235Z,44.64
2023-10-29T00:38:21.020Z,43.64
2023-10-29T00:39:00.787Z,44.01
2023-10-29T00:39:41.190Z,43.41
2023-10-29T00:40:21.209Z,44.07
2023-10-29T00:41:00.930Z,44.57
2023-10-29T00:41:40.710Z,43.15
2023-10-29T00:42:21.477Z,44.20
2023-10-29T00:43:01.296Z,44.90
2023-10-29T00:43:43.595Z,43.62
2023-10-29T00:44:23.516Z,43.14
2023-10-29T00:45:03.897Z,42.70
2023-10-29T00:45:47.606Z,43.33
2023-10-29T00:46:28.087Z,43.21
2023-10-29T00:47:08.827Z,44.92
2023-10-29T00:47:48.736Z,44.14
2023-10-29T00:48:29.071Z,43.90
2023-10-29T00:49:09.415Z,43.57
2023-10-29T00:49:50.478Z,43.32
2023-10-29T00:50:30.686Z,44.11
2023-10-29T00:51:11.485Z,42.95
2023-10-29T00:51:52.634Z,42.27
2023-10-29T00:52:33.595Z,43.11
2023-10-29T00:53:13.555Z,43.66
2023-10-29T00:53:53.859Z,43.97
2023-10-29T00:54:34.084Z,43.05
2023-10-29T00:55:14.089Z,42.94
2023-10-29T00:55:54.868Z,43.37
2023-10-29T00:56:35.394Z,43.04
2023-10-29T00:57:15.239Z,44.07
2023-10-29T00:57:56.154Z,44.51
2023-10-29T00:58:36.251Z,44.04
2023-10-29T00:59:16.766Z,43.25
2023-10-29T00:59:56.703Z,43.23
2023-10-29T01:00:36.519Z,43.06
2023-10-29T01:01:16.518Z,43.02
2023-10-29T01:01:56.893Z,43.12
2023-10-29T01:02:36.843Z,43.26
2023-10-29T01:03:18.336Z,43.01
2023-10-29T01:03:58.470Z,44.78
2023-10-29T01:04:38.992Z,44.23
2023-10-29T01:05:18.798Z,44.03
2023-10-29T01:05:59.445Z,43.58
2023-10-29T01:06:42.818Z,43.09
2023-10-29T01:07:22.910Z,43.51
2023-10-29T01:08:03.552Z,44.04
2023-10-29T01:08:43.915Z,43.25
2023-10-29T01:09:23.990Z,43.18
2023-10-29T01:10:04.458Z,42.86
2023-10-29T01:10:44.190Z,42.62
2023-10-29T01:11:23.904Z,42.15
2023-10-29T01:12:04.021Z,42.38
2023-10-29T01:12:46.116Z,43.33
2023-10-29T01:13:25.858Z,43.80
2023-10-29T01:14:05.921Z,43.36
2023-10-29T01:14:46.599Z,44.54
2023-10-29T01:15:27.948Z,42.71
2023-10-29T01:16:08.186Z,42.74
2023-10-29T01:16:47.988Z,42.91
2023-10-29T01:17:28.311Z,43.13
2023-10-29T01:18:09.037Z,43.84
2023-10-29T01:18:49.237Z,44.15
2023-10-29T01:19:28.988Z,45.14
2023-10-29T01:20:09.242Z,44.34
2023-10-29T01:20:49.019Z,43.53
2023-10-29T01:21:31.257Z,44.02
2023-10-29T01:22:12.018Z,43.70
2023-10-29T01:22:52.136Z,44.23
2023-10-29T01:23:33.041Z,43.96
2023-10-29T01:24:12.813Z,43.28
2023-10-29T01:24:52.890Z,42.47
2023-10-29T01:25:32.841Z,43.55
2023-10-29T01:26:12.665Z,43.84
2023-10-29T01:26:53.468Z,43.79
2023-10-29T01:27:33.197Z,44.60
2023-10-29T01:28:13.267Z,45.52
2023-10-29T01:28:53.308Z,44.78
2023-10-29T01:29:33.063Z,45.68
2023-10-29T01:30:13.662Z,45.52
2023-10-29T01:30:53.965Z,46.16
2023-10-29T01:31:33.808Z,45.34
2023-10-29T01:32:13.595Z,44.52
2023-10-29T01:32:53.380Z,44.46
2023-10-29T01:33:33.573Z,44.48
2023-10-29T01:34:13.621Z,44.64
2023-10-29T01:34:53.976Z,44.09
2023-10-29T01:35:33.921Z,44.70
2023-10-29T01:36:14.005Z,44.50
2023-10-29T01:36:53.712Z,44.15
2023-10-29T01:37:33.634Z,44.85
2023-10-29T01:38:13.409Z,44.67
2023-10-29T01:38:53.554Z,44.40
2023-10-29T01:39:33.454Z,43.06
2023-10-29T01:40:14.999Z,43.91
2023-10-29T01:40:55.011Z,43.94
2023-10-29T01:41:35.548Z,43.68
2023-10-29T01:42:15.954Z,44.62
2023-10-29T01:42:55.744Z,44.55
2023-10-29T01:43:36.052Z,45.24
2023-10-29T01:44:16.281Z,44.60
2023-10-29T01:44:56.056Z,43.70
2023-10-29T01:45:35.878Z,43.79
2023-10-29T01:46:15.956Z,44.53
2023-10-29T01:46:55.824Z,43.01
2023-10-29T01:47:35.641Z,44.43
2023-10-29T01:48:15.502Z,45.38
2023-10-29T01:48:56.826Z,45.51
2023-10-29T01:49:36.924Z,44.58
2023-10-29T01:50:17.166Z,44.93
2023-10-29T01:50:58.022Z,44.71
2023-10-29T01:51:38.108Z,45.35
2023-10-29T01:52:18.021Z,44.24
2023-10-29T01:52:59.075Z,44.63
2023-10-29T01:53:38.778Z,44.67
2023-10-29T01:54:18.675Z,44.39
2023-10-29T01:55:00.186Z,44.85
2023-10-29T01:55:40.193Z,45.23
2023-10-29T01:56:19.958Z,45.03
2023-10-29T01:57:00.239Z,44.62
2023-10-29T01:57:40.281Z,44.87
2023-10-29T01:58:19.985Z,44.40
2023-10-29T01:59:00.471Z,43.75
2023-10-29T01:59:40.322Z,44.36
2023-10-29T02:00:21.342Z,44.44
2023-10-29T02:01:02.078Z,45.42
2023-10-29T02:01:41.994Z,46.31
2023-10-29T02:02:21.741Z,45.98
2023-10-29T02:03:01.863Z,46.60
2023-10-29T02:03:41.909Z,45.77
2023-10-29T02:04:28.365Z,46.12
2023-10-29T02:05:08.678Z,46.60
2023-10-29T02:05:48.763Z,46.25
2023-10-29T02:06:29.677Z,45.27
2023-10-29T02:07:09.682Z,45.57
2023-10-29T02:07:51.939Z,45.83
2023-10-29T02:08:31.898Z,46.71
2023-10-29T02:09:12.105Z,46.09
2023-10-29T02:09:53.898Z,45.56
2023-10-29T02:10:33.875Z,46.09
2023-10-29T02:11:14.262Z,47.21
2023-10-29T02:11:54.403Z,45.81
2023-10-29T02:12:34.441Z,46.18
2023-10-29T02:13:16.775Z,46.59
2023-10-29T02:13:57.007Z,46.75
2023-10-29T02:14:38.651Z,46.80
2023-10-29T02:15:18.440Z,46.41
2023-10-29T02:15:58.178Z,46.52
2023-10-29T02:16:38.409Z,46.80
2023-10-29T02:17:18.124Z,46.75
2023-10-29T02:17:57.954Z,47.16
2023-10-29T02:18:38.250Z,46.50
2023-10-29T02:19:19.289Z,46.98
2023-10-29T02:19:59.862Z,46.81
2023-10-29T02:20:39.718Z,47.10
2023-10-29T02:21:19.469Z,46.78
2023-10-29T02:21:59.570Z,47.72
2023-10-29T02:22:39.566Z,46.48
2023-10-29T02:23:19.252Z,47.67
2023-10-29T02:24:02.957Z,48.32
2023-10-29T02:24:42.857Z,47.98
2023-10-29T02:25:22.606Z,48.31
2023-10-29T02:26:02.704Z,47.45
2023-10-29T02:26:42.525Z,47.11
2023-10-29T02:27:22.677Z,46.91
2023-10-29T02:28:02.423Z,48.32
2023-10-29T02:28:42.237Z,48.96
2023-10-29T02:29:22.891Z,48.01
2023-10-29T02:30:03.032Z,48.76
2023-10-29T02:30:46.075Z,49.34
2023-10-29T02:31:25.870Z,49.95
2023-10-29T02:32:05.702Z,49.89
2023-10-29T02:32:45.654Z,49.57
2023-10-29T02:33:25.703Z,49.65
2023-10-29T02:34:05.520Z,49.12
2023-10-29T02:34:45.337Z,49.71
2023-10-29T02:35:25.542Z,48.74
2023-10-29T02:36:05.538Z,49.06
2023-10-29T02:36:46.722Z,48.08
2023-10-29T02:37:26.469Z,48.63
2023-10-29T02:38:06.575Z,47.75
2023-10-29T02:38:46.545Z,47.22
2023-10-29T02:39:26.701Z,46.83
2023-10-29T02:40:07.248Z,47.54
2023-10-29T02:40:47.620Z,46.60
2023-10-29T02:41:27.875Z,46.41
2023-10-29T02:42:07.812Z,46.08
2023-10-29T02:42:48.167Z,45.95
2023-10-29T02:43:28.860Z,46.59
2023-10-29T02:44:08.657Z,46.63
2023-10-29T02:44:48.628Z,46.33
2023-10-29T02:45:28.620Z,46.87
2023-10-29T02:46:08.726Z,46.57
2023-10-29T02:46:48.545Z,48.03
2023-10-29T02:47:28.317Z,47.59
2023-10-29T02:48:08.210Z,48.41
2023-10-29T02:48:48.290Z,47.14
2023-10-29T02:49:28.734Z,46.46
2023-10-29T02:50:08.818Z,46.57
2023-10-29T02:50:48.554Z,47.04
2023-10-29T02:51:28.575Z,46.02
2023-10-29T02:52:08.568Z,45.39
2023-10-29T02:52:48.285Z,45.58
2023-10-29T02:53:28.339Z,46.90
2023-10-29T02:54:08.449Z,46.81
2023-10-29T02:54:48.685Z,46.05
2023-10-29T02:55:28.582Z,46.74
2023-10-29T02:56:08.320Z,46.05
2023-10-29T02:56:48.242Z,46.10
2023-10-29T02:57:30.300Z,46.54
2023-10-29T02:58:10.042Z,46.25
2023-10-29T02:58:49.816Z,46.65
2023-10-29T02:59:29.789Z,46.34
2023-10-29T03:00:10.238Z,45.67
2023-10-29T03:00:50.052Z,45.49
2023-10-29T03:01:29.851Z,44.93
2023-10-29T03:02:09.784Z,44.70
2023-10-29T03:02:49.625Z,46.07
2023-10-29T03:03:29.477Z,45.59
2023-10-29T03:04:09.449Z,46.66
2023-10-29T03:04:50.234Z,46.41
2023-10-29T03:05:31.738Z,45.30
2023-10-29T03:06:17.299Z,44.76
2023-10-29T03:06:57.009Z,45.99
2023-10-29T03:07:37.042Z,47.09
2023-10-29T03:08:17.669Z,46.87
2023-10-29T03:08:57.468Z,47.85
2023-10-29T03:09:37.241Z,47.56
2023-10-29T03:10:17.363Z,46.96
2023-10-29T03:10:58.610Z,46.33
2023-10-29T03:11:38.341Z,46.92
2023-10-29T03:12:18.099Z,46.40
2023-10-29T03:12:57.984Z,46.22
2023-10-29T03:13:38.133Z,46.03
2023-10-29T03:14:18.061Z,45.48
2023-10-29T03:14:57.785Z,45.43
2023-10-29T03:15:37.975Z,45.92
2023-10-29T03:16:18.055Z,45.90
2023-10-29T03:16:58.564Z,46.19
2023-10-29T03:17:38.387Z,46.14
2023-10-29T03:18:18.835Z,46.66
2023-10-29T03:18:58.647Z,47.67
2023-10-29T03:19:38.355Z,48.01
2023-10-29T03:20:18.575Z,47.68
2023-10-29T03:20:58.758Z,46.39
2023-10-29T03:21:38.546Z,46.68
2023-10-29T03:22:18.366Z,46.04
2023-10-29T03:22:58.115Z,47.30
2023-10-29T03:23:38.079Z,47.56
2023-10-29T03:24:18.324Z,47.94
2023-10-29T03:24:58.098Z,46.93
2023-10-29T03:25:37.895Z,46.32
2023-10-29T03:26:18.021Z,46.65
2023-10-29T03:26:58.421Z,47.01
2023-10-29T03:27:38.415Z,46.35
2023-10-29T03:28:18.176Z,47.73
2023-10-29T03:28:58.200Z,46.65
2023-10-29T03:29:38.295Z,47.21
2023-10-29T03:30:18.046Z,47.60
2023-10-29T03:30:58.822Z,46.71
2023-10-29T03:31:39.498Z,46.48
2023-10-29T03:32:19.334Z,46.39
2023-10-29T03:32:59.337Z,46.44
2023-10-29T03:33:39.085Z,46.07
2023-10-29T03:34:19.073Z,45.24
2023-10-29T03:34:58.795Z,45.44
2023-10-29T03:35:38.603Z,46.64
2023-10-29T03:36:18.451Z,45.99
2023-10-29T03:36:58.523Z,46.82
2023-10-29T03:37:38.480Z,47.32
2023-10-29T03:38:18.185Z,47.47
2023-10-29T03:38:57.940Z,47.84
2023-10-29T03:39:37.943Z,48.07
2023-10-29T03:40:17.715Z,48.76
2023-10-29T03:40:57.526Z,47.58
2023-10-29T03:41:37.536Z,47.72
2023-10-29T03:42:17.497Z,47.13
2023-10-29T03:42:57.218Z,47.16
2023-10-29T03:43:36.939Z,46.90
2023-10-29T03:44:16.610Z,47.31
2023-10-29T03:44:56.489Z,47.23
2023-10-29T03:45:37.082Z,47.43
2023-10-29T03:46:17.473Z,47.38
2023-10-29T03:47:36.887Z,46.97
2023-10-29T03:48:17.722Z,47.87
2023-10-29T03:48:57.535Z,47.68
2023-10-29T03:49:38.254Z,47.38
2023-10-29T03:50:20.962Z,47.49
2023-10-29T03:51:04.216Z,47.93
2023-10-29T03:51:50.058Z,47.92
2023-10-29T03:52:31.462Z,47.01
2023-10-29T03:53:12.095Z,46.97
2023-10-29T03:53:51.806Z,47.93
2023-10-29T03:54:31.615Z,47.27
2023-10-29T03:55:11.476Z,47.05
2023-10-29T03:55:53.708Z,46.66
2023-10-29T03:56:33.649Z,48.06
2023-10-29T03:57:13.533Z,48.48
2023-10-29T03:57:53.316Z,47.42
2023-10-29T03:58:33.567Z,46.58
2023-10-29T03:59:13.358Z,47.08
2023-10-29T03:59:53.120Z,47.70
2023-10-29T04:00:32.901Z,47.98
2023-10-29T04:01:16.256Z,47.34
2023-10-29T04:01:55.954Z,47.37
2023-10-29T04:02:35.738Z,48.11
2023-10-29T04:03:15.537Z,48.19
2023-10-29T04:03:55.793Z,47.90
2023-10-29T04:04:36.646Z,48.15
2023-10-29T04:05:16.824Z,47.21
2023-10-29T04:05:58.008Z,47.72
2023-10-29T04:06:37.980Z,48.18
2023-10-29T04:07:17.744Z,47.43
2023-10-29T04:07:57.487Z,47.21
2023-10-29T04:08:37.365Z,47.81
2023-10-29T04:09:17.460Z,47.04
2023-10-29T04:09:57.780Z,46.38
2023-10-29T04:10:37.454Z,47.49
2023-10-29T04:11:17.204Z,47.39
2023-10-29T04:11:57.773Z,47.75
2023-10-29T04:12:37.514Z,47.70
2023-10-29T04:13:17.248Z,47.95
2023-10-29T04:13:57.030Z,47.34
2023-10-29T04:14:37.319Z,47.33
2023-10-29T04:15:17.247Z,46.60
2023-10-29T04:15:56.998Z,46.59
2023-10-29T04:16:36.828Z,46.37
2023-10-29T04:17:16.683Z,46.67
2023-10-29T04:17:56.432Z,46.65
2023-10-29T04:18:36.575Z,46.88
2023-10-29T04:19:16.361Z,46.26
2023-10-29T04:19:56.562Z,47.26
2023-10-29T04:20:36.242Z,47.58
2023-10-29T04:21:16.458Z,47.30
2023-10-29T04:21:56.150Z,46.41
2023-10-29T04:22:36.082Z,48.11
2023-10-29T04:23:15.790Z,48.61
2023-10-29T04:23:55.688Z,48.13
2023-10-29T04:24:35.533Z,48.23
2023-10-29T04:25:15.665Z,48.07
2023-10-29T04:25:55.652Z,48.32
2023-10-29T04:26:35.389Z,46.99
2023-10-29T04:27:15.268Z,47.03
2023-10-29T04:27:56.461Z,47.24
2023-10-29T04:28:36.242Z,46.64
2023-10-29T04:29:16.863Z,46.22
2023-10-29T04:29:56.797Z,46.82
2023-10-29T04:30:36.990Z,45.80
2023-10-29T04:31:16.902Z,45.25
2023-10-29T04:31:56.626Z,46.06
2023-10-29T04:32:36.496Z,47.03
2023-10-29T04:33:16.488Z,47.58
2023-10-29T04:33:56.638Z,46.17
2023-10-29T04:34:36.495Z,46.29
2023-10-29T04:35:16.306Z,47.20
2023-10-29T04:35:56.981Z,47.93
2023-10-29T04:36:36.933Z,47.45
2023-10-29T04:37:16.682Z,47.48
2023-10-29T04:37:56.405Z,47.58
2023-10-29T04:38:38.847Z,47.20
2023-10-29T04:39:18.627Z,46.80
2023-10-29T04:39:58.464Z,47.04
2023-10-29T04:40:38.223Z,46.48
2023-10-29T04:41:18.261Z,46.91
2023-10-29T04:41:58.008Z,47.11
2023-10-29T04:42:37.909Z,46.84
2023-10-29T04:43:17.737Z,46.35
2023-10-29T04:43:58.365Z,45.86
2023-10-29T04:44:38.113Z,46.22
2023-10-29T04:45:17.915Z,46.56
2023-10-29T04:45:58.741Z,46.90
2023-10-29T04:46:38.849Z,47.15
2023-10-29T04:47:19.003Z,46.54
2023-10-29T04:47:58.806Z,46.00
2023-10-29T04:48:39.772Z,46.15
2023-10-29T04:49:19.671Z,45.25
2023-10-29T04:49:59.804Z,45.99
2023-10-29T04:50:39.546Z,46.66
2023-10-29T04:51:19.260Z,46.41
2023-10-29T04:51:59.412Z,46.32
2023-10-29T04:52:39.326Z,46.60
2023-10-29T04:53:19.050Z,46.87
2023-10-29T04:53:58.895Z,46.59
2023-10-29T04:54:38.889Z,46.09
2023-10-29T04:55:18.644Z,46.90
2023-10-29T04:55:58.392Z,46.87
2023-10-29T04:56:38.149Z,47.58
2023-10-29T04:57:22.337Z,47.08
2023-10-29T04:58:02.213Z,45.98
2023-10-29T04:58:42.044Z,46.48
2023-10-29T04:59:21.822Z,46.11
2023-10-29T05:00:02.738Z,47.51
2023-10-29T05:00:43.818Z,46.54
2023-10-29T05:01:23.641Z,46.91
2023-10-29T05:02:03.386Z,47.07
2023-10-29T05:02:43.502Z,46.78
2023-10-29T05:03:23.604Z,46.36
2023-10-29T05:04:03.476Z,46.70
2023-10-29T05:04:43.285Z,46.39
2023-10-29T05:05:23.307Z,46.48
2023-10-29T05:06:03.181Z,47.01
2023-10-29T05:06:42.969Z,46.27
2023-10-29T05:07:22.722Z,46.16
2023-10-29T05:08:02.838Z,46.05
2023-10-29T05:08:42.541Z,45.56
2023-10-29T05:09:22.344Z,46.54
2023-10-29T05:10:02.052Z,45.84
2023-10-29T05:10:46.885Z,45.17
2023-10-29T05:11:26.814Z,45.61
2023-10-29T05:12:07.144Z,45.69
2023-10-29T05:12:46.797Z,46.11
2023-10-29T05:13:26.858Z,45.50
2023-10-29T05:14:07.022Z,46.57
2023-10-29T05:14:47.020Z,46.16
2023-10-29T05:15:26.936Z,46.09
2023-10-29T05:16:07.361Z,46.82
2023-10-29T05:16:47.238Z,46.45
2023-10-29T05:17:27.045Z,45.44
2023-10-29T05:18:07.265Z,45.26
2023-10-29T05:18:47.620Z,45.76
2023-10-29T05:19:27.551Z,45.79
2023-10-29T05:20:11.018Z,45.55
2023-10-29T05:20:50.828Z,45.44
2023-10-29T05:21:30.858Z,45.71
2023-10-29T05:22:10.638Z,46.07
2023-10-29T05:22:50.342Z,45.14
2023-10-29T05:23:30.196Z,45.28
2023-10-29T05:24:11.005Z,45.28
2023-10-29T05:24:51.081Z,45.14
2023-10-29T05:25:31.405Z,45.34
2023-10-29T05:26:11.117Z,45.29
2023-10-29T05:26:51.042Z,45.28
2023-10-29T05:27:30.879Z,45.88
2023-10-29T05:28:10.913Z,46.38
2023-10-29T05:28:50.932Z,46.20
2023-10-29T05:29:33.071Z,46.27
2023-10-29T05:30:13.284Z,44.82
2023-10-29T05:30:53.044Z,45.30
2023-10-29T05:31:33.902Z,45.95
2023-10-29T05:32:13.830Z,45.22
2023-10-29T05:32:53.769Z,45.68
2023-10-29T05:33:34.187Z,45.01
2023-10-29T05:34:14.013Z,45.76
2023-10-29T05:34:54.185Z,44.89
2023-10-29T05:35:34.017Z,44.16
2023-10-29T05:36:13.762Z,44.76
2023-10-29T05:36:53.415Z,44.92
2023-10-29T05:37:33.279Z,44.16
2023-10-29T05:38:13.011Z,44.04
2023-10-29T05:38:53.134Z,43.12
2023-10-29T05:39:32.978Z,44.11
2023-10-29T05:40:13.447Z,45.56
2023-10-29T05:40:53.500Z,44.49
2023-10-29T05:41:33.215Z,44.21
2023-10-29T05:42:12.987Z,43.61
2023-10-29T05:42:52.949Z,44.45
2023-10-29T05:43:32.675Z,43.43
2023-10-29T05:44:12.334Z,43.73
2023-10-29T05:44:52.159Z,45.14
2023-10-29T05:45:32.372Z,43.85
2023-10-29T05:46:16.159Z,43.20
2023-10-29T05:46:55.913Z,43.56
2023-10-29T05:47:35.710Z,44.42
2023-10-29T05:48:15.857Z,44.55
2023-10-29T05:48:55.654Z,44.15
2023-10-29T05:49:35.898Z,44.39
2023-10-29T05:50:16.057Z,45.95
2023-10-29T05:50:56.106Z,44.88
2023-10-29T05:51:35.955Z,44.11
2023-10-29T05:52:15.735Z,44.47
2023-10-29T05:52:55.512Z,44.36
2023-10-29T05:53:35.470Z,43.36
2023-10-29T05:54:15.199Z,43.77
2023-10-29T05:54:55.156Z,44.16
2023-10-29T05:55:35.381Z,43.40
2023-10-29T05:56:15.641Z,43.31
2023-10-29T05:56:55.610Z,43.94
2023-10-29T05:57:35.334Z,43.21
2023-10-29T05:58:15.099Z,43.35
2023-10-29T05:58:55.038Z,42.89
2023-10-29T05:59:35.057Z,42.75
2023-10-29T06:00:16.856Z,43.78
2023-10-29T06:00:56.639Z,44.36
2023-10-29T06:01:36.853Z,43.43
2023-10-29T06:02:17.100Z,43.33
2023-10-29T06:02:56.910Z,43.37
2023-10-29T06:03:37.045Z,43.21
2023-10-29T06:04:17.458Z,43.04
2023-10-29T06:04:57.472Z,42.05
2023-10-29T06:05:37.369Z,41.81
2023-10-29T06:06:17.189Z,42.77
2023-10-29T06:06:57.288Z,42.64
2023-10-29T06:07:38.900Z,42.31
2023-10-29T06:08:18.650Z,42.89
2023-10-29T06:09:02.297Z,43.43
2023-10-29T06:09:50.176Z,42.97
2023-10-29T06:10:29.943Z,42.89
2023-10-29T06:11:09.681Z,44.37
2023-10-29T06:11:49.733Z,42.02
2023-10-29T06:12:29.890Z,42.13
2023-10-29T06:13:09.650Z,43.38
2023-10-29T06:13:49.998Z,42.01
2023-10-29T06:14:29.866Z,42.56
2023-10-29T06:15:13.321Z,42.18
2023-10-29T06:15:53.203Z,42.29
2023-10-29T06:16:32.996Z,41.28
2023-10-29T06:17:25.643Z,41.60
2023-10-29T06:18:08.581Z,42.10
2023-10-29T06:18:48.323Z,43.22
2023-10-29T06:19:28.227Z,41.20
2023-10-29T06:20:13.389Z,42.16
2023-10-29T06:20:55.203Z,42.09
2023-10-29T06:21:34.922Z,43.24
2023-10-29T06:22:15.719Z,42.38
2023-10-29T06:22:55.447Z,42.62
2023-10-29T06:23:37.319Z,43.27
2023-10-29T06:24:18.290Z,41.19
2023-10-29T06:24:58.005Z,42.40
2023-10-29T06:25:38.626Z,41.74
2023-10-29T06:26:18.803Z,43.18
2023-10-29T06:26:58.633Z,42.89
2023-10-29T06:27:38.361Z,42.17
2023-10-29T06:28:18.083Z,42.12
2023-10-29T06:28:58.066Z,41.18
2023-10-29T06:29:40.461Z,41.49
2023-10-29T06:30:20.393Z,42.11
2023-10-29T06:31:00.354Z,41.35
2023-10-29T06:31:40.344Z,41.92
2023-10-29T06:32:20.121Z,41.20
2023-10-29T06:33:03.148Z,40.27
2023-10-29T06:33:43.485Z,39.80
2023-10-29T06:34:24.629Z,39.75
2023-10-29T06:35:05.058Z,40.38
2023-10-29T06:35:44.817Z,39.42
2023-10-29T06:36:24.645Z,40.46
2023-10-29T06:37:04.516Z,41.19
2023-10-29T06:37:44.286Z,42.13
2023-10-29T06:38:23.962Z,41.37
2023-10-29T06:39:03.775Z,41.19
2023-10-29T06:39:43.999Z,41.80
2023-10-29T06:40:23.994Z,41.85
2023-10-29T06:41:04.679Z,39.95
2023-10-29T06:41:44.523Z,39.75
2023-10-29T06:42:24.541Z,40.12
2023-10-29T06:43:05.599Z,40.83
2023-10-29T06:43:45.290Z,39.97
2023-10-29T06:44:25.036Z,41.00
2023-10-29T06:45:05.421Z,40.33
2023-10-29T06:45:45.503Z,40.67
2023-10-29T06:46:25.368Z,39.76
2023-10-29T06:47:05.767Z,39.61
2023-10-29T06:47:45.724Z,38.93
2023-10-29T06:48:25.818Z,39.04
2023-10-29T06:49:05.834Z,39.93
2023-10-29T06:49:45.628Z,39.36
2023-10-29T06:50:26.217Z,38.58
2023-10-29T06:51:06.212Z,38.77
2023-10-29T06:51:46.601Z,39.29
2023-10-29T06:52:26.539Z,39.29
2023-10-29T06:53:07.815Z,40.80
2023-10-29T06:53:47.772Z,38.89
2023-10-29T06:54:27.632Z,40.62
2023-10-29T06:55:10.928Z,40.66
2023-10-29T06:55:50.934Z,38.89
2023-10-29T06:56:30.697Z,38.70
2023-10-29T06:57:11.027Z,38.84
2023-10-29T06:57:51.176Z,39.31
2023-10-29T06:58:31.218Z,39.59
2023-10-29T06:59:12.380Z,38.69
2023-10-29T06:59:52.552Z,38.89
2023-10-29T07:00:33.639Z,38.96
2023-10-29T07:01:14.300Z,39.34
2023-10-29T07:01:54.413Z,39.43
2023-10-29T07:02:34.804Z,38.77
2023-10-29T07:03:15.688Z,38.71
2023-10-29T07:03:56.298Z,39.87
2023-10-29T07:04:36.240Z,39.13
2023-10-29T07:05:16.166Z,39.67
2023-10-29T07:05:55.917Z,39.28
2023-10-29T07:06:35.963Z,39.66
2023-10-29T07:07:15.784Z,39.36
2023-10-29T07:07:56.331Z,39.44
2023-10-29T07:08:37.111Z,39.04
2023-10-29T07:09:17.701Z,39.81
2023-10-29T07:09:58.608Z,40.80
2023-10-29T07:10:38.854Z,41.19
2023-10-29T07:11:20.413Z,41.09
2023-10-29T07:12:00.514Z,40.60
2023-10-29T07:12:42.132Z,39.61
2023-10-29T07:13:22.010Z,40.53
2023-10-29T07:14:01.672Z,40.07
2023-10-29T07:14:41.563Z,40.29
2023-10-29T07:15:21.559Z,39.89
2023-10-29T07:16:06.382Z,39.29
2023-10-29T07:16:49.075Z,39.88
2023-10-29T07:17:29.077Z,40.25
2023-10-29T07:18:09.247Z,39.16
2023-10-29T07:18:49.417Z,38.84
2023-10-29T07:19:29.263Z,38.31
2023-10-29T07:20:10.507Z,39.86
2023-10-29T07:20:50.254Z,38.85
2023-10-29T07:21:30.850Z,38.00
2023-10-29T07:22:10.802Z,38.46
2023-10-29T07:22:50.890Z,38.18
2023-10-29T07:23:30.618Z,38.22
2023-10-29T07:24:10.938Z,37.63
2023-10-29T07:24:50.722Z,37.98
2023-10-29T07:25:30.746Z,38.75
2023-10-29T07:26:10.490Z,38.42
2023-10-29T07:26:50.507Z,38.09
2023-10-29T07:27:30.314Z,38.03
2023-10-29T07:28:10.442Z,38.97
2023-10-29T07:28:50.368Z,40.11
2023-10-29T07:29:30.228Z,39.19
2023-10-29T07:30:11.359Z,38.87
2023-10-29T07:30:51.453Z,39.14
2023-10-29T07:31:32.721Z,39.01
2023-10-29T07:32:12.498Z,38.13
2023-10-29T07:32:52.952Z,38.81
2023-10-29T07:33:34.222Z,38.87
2023-10-29T07:34:14.317Z,39.09
2023-10-29T07:34:54.058Z,40.15
2023-10-29T07:35:33.774Z,40.58
2023-10-29T07:36:13.708Z,39.96
2023-10-29T07:36:53.505Z,39.04
2023-10-29T07:37:33.252Z,40.05
2023-10-29T07:38:13.015Z,38.96
2023-10-29T07:38:53.322Z,38.62
2023-10-29T07:39:33.431Z,40.70
2023-10-29T07:40:13.351Z,39.00
2023-10-29T07:40:53.178Z,39.81
2023-10-29T07:41:33.098Z,39.96
2023-10-29T07:42:12.857Z,39.77
2023-10-29T07:42:52.577Z,39.22
2023-10-29T07:43:32.257Z,38.86
2023-10-29T07:44:12.329Z,38.80
2023-10-29T07:44:52.114Z,38.56
2023-10-29T07:45:32.392Z,38.74
2023-10-29T07:46:12.222Z,38.84
2023-10-29T07:46:52.316Z,39.25
2023-10-29T07:47:33.691Z,39.36
2023-10-29T07:48:13.490Z,39.06
2023-10-29T07:48:53.342Z,39.80
2023-10-29T07:49:33.493Z,39.64
2023-10-29T07:50:13.692Z,37.79
2023-10-29T07:50:54.432Z,38.34
2023-10-29T07:51:34.216Z,37.82
2023-10-29T07:52:14.348Z,39.29
2023-10-29T07:52:54.140Z,39.18
2023-10-29T07:53:34.081Z,38.37
2023-10-29T07:54:14.251Z,39.17
2023-10-29T07:54:54.532Z,38.59
2023-10-29T07:55:34.875Z,39.70
2023-10-29T07:56:18.691Z,38.11
2023-10-29T07:56:58.414Z,38.12
2023-10-29T07:57:40.410Z,38.10
2023-10-29T07:58:20.158Z,39.57
2023-10-29T07:58:59.894Z,39.45
2023-10-29T07:59:39.802Z,38.72
2023-10-29T08:00:20.080Z,39.82
2023-10-29T08:01:00.167Z,38.78
2023-10-29T08:01:39.890Z,38.38
2023-10-29T08:02:19.634Z,39.29
2023-10-29T08:02:59.618Z,39.64
2023-10-29T08:03:39.669Z,39.36
2023-10-29T08:04:19.625Z,39.19
2023-10-29T08:04:59.366Z,39.84
2023-10-29T08:05:39.511Z,39.89
2023-10-29T08:06:19.488Z,40.57
2023-10-29T08:06:59.274Z,39.76
2023-10-29T08:07:40.983Z,39.48
2023-10-29T08:08:21.547Z,40.13
2023-10-29T08:09:01.274Z,40.01
2023-10-29T08:09:42.070Z,39.60
2023-10-29T08:10:21.798Z,40.06
2023-10-29T08:11:01.908Z,40.26
2023-10-29T08:11:41.850Z,41.12
2023-10-29T08:12:21.552Z,40.91
2023-10-29T08:13:01.307Z,39.19
2023-10-29T08:13:42.490Z,39.76
2023-10-29T08:14:22.208Z,39.79
2023-10-29T08:15:02.004Z,40.39
2023-10-29T08:15:43.725Z,39.57
2023-10-29T08:16:24.105Z,40.43
2023-10-29T08:17:04.626Z,40.64
2023-10-29T08:17:44.355Z,39.16
2023-10-29T08:18:24.285Z,39.99
2023-10-29T08:19:04.347Z,40.36
2023-10-29T08:19:44.081Z,39.80
2023-10-29T08:20:23.792Z,40.18
2023-10-29T08:21:03.624Z,40.01
2023-10-29T08:21:44.488Z,40.57
2023-10-29T08:22:24.278Z,41.86
2023-10-29T08:23:04.001Z,40.49
2023-10-29T08:23:43.853Z,39.35
2023-10-29T08:24:23.788Z,41.19
2023-10-29T08:25:03.538Z,39.59
2023-10-29T08:25:43.230Z,40.51
2023-10-29T08:26:22.926Z,39.95
2023-10-29T08:27:03.366Z,39.96
2023-10-29T08:27:43.180Z,40.92
2023-10-29T08:28:23.008Z,39.82
2023-10-29T08:29:02.751Z,39.03
2023-10-29T08:29:43.874Z,39.47
2023-10-29T08:30:23.613Z,39.01
2023-10-29T08:31:03.954Z,39.34
2023-10-29T08:31:43.850Z,38.21
2023-10-29T08:32:23.995Z,37.72
2023-10-29T08:33:04.009Z,37.71
2023-10-29T08:33:44.013Z,37.82
2023-10-29T08:34:23.699Z,38.15
2023-10-29T08:35:04.032Z,39.26
2023-10-29T08:35:47.084Z,39.74
2023-10-29T08:36:27.114Z,38.85
2023-10-29T08:37:07.046Z,39.44
2023-10-29T08:37:47.195Z,39.60
2023-10-29T08:38:26.977Z,39.06
2023-10-29T08:39:06.754Z,39.42